createdAt,value
2022-10-09T00:01:51.456Z,88
2022-10-09T00:03:50.859Z,89
2022-10-09T00:05:51.150Z,89
2022-10-09T00:07:50.630Z,89
2022-10-09T00:09:52.335Z,89
2022-10-09T00:11:51.428Z,89
2022-10-09T00:13:47.666Z,89
2022-10-09T00:15:51.131Z,89
2022-10-09T00:17:49.054Z,89
2022-10-09T00:19:51.441Z,89
2022-10-09T00:21:49.050Z,89
2022-10-09T00:23:58.318Z,89
2022-10-09T00:25:51.027Z,89
2022-10-09T00:27:51.158Z,89
2022-10-09T00:29:51.123Z,89
2022-10-09T00:31:51.085Z,89
2022-10-09T00:33:49.091Z,89
2022-10-09T00:35:51.246Z,89
2022-10-09T00:37:51.283Z,89
2022-10-09T00:39:51.171Z,89
2022-10-09T00:43:53.985Z,89
2022-10-09T00:45:51.098Z,89
2022-10-09T00:49:51.317Z,89
2022-10-09T00:53:49.092Z,89
2022-10-09T00:55:50.814Z,89
2022-10-09T00:57:54.736Z,89
2022-10-09T00:59:51.456Z,89
2022-10-09T01:01:51.202Z,89
2022-10-09T01:03:55.069Z,89
2022-10-09T01:05:51.078Z,89
2022-10-09T01:07:51.053Z,89
2022-10-09T01:09:51.080Z,89
2022-10-09T01:11:51.236Z,89
2022-10-09T01:13:51.193Z,89
2022-10-09T01:15:51.167Z,89
2022-10-09T01:17:51.141Z,89
2022-10-09T01:19:53.993Z,89
2022-10-09T01:21:51.647Z,89
2022-10-09T01:23:50.883Z,89
2022-10-09T01:25:51.189Z,89
2022-10-09T01:27:51.231Z,89
2022-10-09T01:29:51.123Z,89
2022-10-09T01:33:50.763Z,89
2022-10-09T01:35:51.113Z,89
2022-10-09T01:37:51.290Z,89
2022-10-09T01:39:51.000Z,89
2022-10-09T01:41:51.420Z,89
2022-10-09T01:43:57.698Z,89
2022-10-09T01:45:51.455Z,89
2022-10-09T01:47:51.187Z,89
2022-10-09T01:51:54.190Z,89
2022-10-09T01:53:51.110Z,89
2022-10-09T01:55:51.154Z,89
2022-10-09T01:57:51.145Z,90
2022-10-09T01:59:50.889Z,90
2022-10-09T02:01:50.486Z,90
2022-10-09T02:03:56.360Z,90
2022-10-09T02:05:51.067Z,90
2022-10-09T02:07:51.061Z,90
2022-10-09T02:09:51.420Z,90
2022-10-09T02:13:49.102Z,89
2022-10-09T02:17:54.797Z,89
2022-10-09T02:23:54.930Z,89
2022-10-09T02:27:48.946Z,89
2022-10-09T02:31:50.843Z,89
2022-10-09T02:33:51.070Z,89
2022-10-09T02:35:50.917Z,89
2022-10-09T02:37:50.729Z,89
2022-10-09T02:39:49.686Z,89
2022-10-09T02:41:51.072Z,89
2022-10-09T02:43:51.110Z,89
2022-10-09T02:45:51.231Z,89
2022-10-09T02:47:50.720Z,89
2022-10-09T02:49:51.102Z,89
2022-10-09T02:51:51.536Z,89
2022-10-09T02:53:50.427Z,89
2022-10-09T02:57:50.814Z,89
2022-10-09T02:59:50.663Z,89
2022-10-09T03:01:50.768Z,89
2022-10-09T03:03:50.765Z,89
2022-10-09T03:05:50.721Z,89
2022-10-09T03:07:49.120Z,89
2022-10-09T03:09:49.096Z,89
2022-10-09T03:11:50.988Z,89
2022-10-09T03:13:50.670Z,89
2022-10-09T03:15:51.013Z,89
2022-10-09T03:17:50.713Z,89
2022-10-09T03:19:50.371Z,89
2022-10-09T03:21:50.379Z,89
2022-10-09T03:23:50.640Z,89
2022-10-09T03:25:50.636Z,89
2022-10-09T03:27:49.080Z,89
2022-10-09T03:31:52.698Z,89
2022-10-09T03:33:50.671Z,89
2022-10-09T03:35:50.961Z,89
2022-10-09T03:37:54.744Z,89
2022-10-09T03:39:50.670Z,89
2022-10-09T03:41:51.182Z,89
2022-10-09T03:43:56.939Z,89
2022-10-09T03:45:50.663Z,90
2022-10-09T03:47:49.035Z,89
2022-10-09T03:49:50.811Z,89
2022-10-09T03:51:50.651Z,90
2022-10-09T03:53:50.621Z,89
2022-10-09T03:57:54.958Z,90
2022-10-09T03:59:50.652Z,90
2022-10-09T04:03:50.825Z,90
2022-10-09T04:07:50.651Z,90
2022-10-09T04:09:54.886Z,90
2022-10-09T04:13:50.728Z,90
2022-10-09T04:15:50.752Z,90
2022-10-09T04:17:54.156Z,90
2022-10-09T04:19:49.122Z,90
2022-10-09T04:21:50.672Z,90
2022-10-09T04:23:51.070Z,90
2022-10-09T04:25:50.779Z,90
2022-10-09T04:29:50.807Z,90
2022-10-09T04:31:50.703Z,90
2022-10-09T04:33:50.701Z,90
2022-10-09T04:37:50.898Z,90
2022-10-09T04:39:50.447Z,90
2022-10-09T04:43:55.377Z,90
2022-10-09T04:45:50.697Z,90
2022-10-09T04:47:50.787Z,90
2022-10-09T04:49:52.820Z,90
2022-10-09T04:51:50.659Z,90
2022-10-09T04:53:51.069Z,90
2022-10-09T04:55:52.298Z,90
2022-10-09T04:57:54.791Z,90
2022-10-09T04:59:50.922Z,90
2022-10-09T05:01:50.683Z,90
2022-10-09T05:03:50.752Z,90
2022-10-09T05:05:51.224Z,90
2022-10-09T05:09:50.963Z,90
2022-10-09T05:11:50.631Z,90
2022-10-09T05:13:50.651Z,90
2022-10-09T05:15:50.723Z,91
2022-10-09T05:17:50.816Z,91
2022-10-09T05:19:52.309Z,91
2022-10-09T05:21:50.743Z,90
2022-10-09T05:23:50.651Z,90
2022-10-09T05:25:50.696Z,90
2022-10-09T05:27:50.601Z,91
2022-10-09T05:29:53.744Z,90
2022-10-09T05:31:50.789Z,91
2022-10-09T05:33:50.686Z,90
2022-10-09T05:35:50.652Z,90
2022-10-09T05:37:50.667Z,90
2022-10-09T05:39:54.054Z,90
2022-10-09T05:41:50.785Z,90
2022-10-09T05:43:50.722Z,90
2022-10-09T05:45:51.096Z,90
2022-10-09T05:47:54.450Z,90
2022-10-09T05:49:50.737Z,90
2022-10-09T05:53:50.594Z,90
2022-10-09T05:57:50.502Z,90
2022-10-09T05:59:50.700Z,90
2022-10-09T06:01:51.114Z,90
2022-10-09T06:03:58.188Z,90
2022-10-09T06:05:50.671Z,90
2022-10-09T06:07:50.762Z,90
2022-10-09T06:09:50.631Z,90
2022-10-09T06:11:50.705Z,89
2022-10-09T06:13:50.756Z,89
2022-10-09T06:15:50.741Z,89
2022-10-09T06:17:50.710Z,89
2022-10-09T06:19:50.788Z,89
2022-10-09T06:21:50.673Z,89
2022-10-09T06:23:50.706Z,89
2022-10-09T06:25:50.919Z,89
2022-10-09T06:27:50.664Z,88
2022-10-09T06:29:51.094Z,88
2022-10-09T06:31:50.918Z,88
2022-10-09T06:35:50.873Z,88
2022-10-09T06:37:50.994Z,88
2022-10-09T06:39:52.313Z,88
2022-10-09T06:43:50.751Z,88
2022-10-09T06:45:50.789Z,87
2022-10-09T06:47:50.844Z,87
2022-10-09T06:49:51.181Z,87
2022-10-09T06:51:50.727Z,87
2022-10-09T06:53:50.758Z,87
2022-10-09T06:55:50.700Z,87
2022-10-09T06:57:51.095Z,86
2022-10-09T06:59:53.752Z,87
2022-10-09T07:01:50.696Z,86
2022-10-09T07:03:53.953Z,86
2022-10-09T07:05:50.683Z,85
2022-10-09T07:07:50.598Z,81
2022-10-09T07:09:50.646Z,75
2022-10-09T07:11:51.012Z,79
2022-10-09T07:13:50.703Z,80
2022-10-09T07:15:49.873Z,80
2022-10-09T07:17:51.033Z,76
2022-10-09T07:19:52.286Z,75
2022-10-09T07:21:50.596Z,75
2022-10-09T07:23:54.269Z,80
2022-10-09T07:25:50.664Z,82
2022-10-09T07:27:50.697Z,82
2022-10-09T07:29:50.707Z,82
2022-10-09T07:31:50.740Z,82
2022-10-09T07:33:50.650Z,77
2022-10-09T07:35:50.934Z,75
2022-10-09T07:37:50.608Z,74
2022-10-09T07:39:50.970Z,74
2022-10-09T07:41:50.651Z,74
2022-10-09T07:43:58.887Z,79
2022-10-09T07:45:54.425Z,79
2022-10-09T07:47:50.744Z,79
2022-10-09T07:49:50.640Z,79
2022-10-09T07:51:50.703Z,80
2022-10-09T07:53:50.644Z,80
2022-10-09T07:55:50.702Z,80
2022-10-09T07:57:53.883Z,80
2022-10-09T07:59:54.479Z,80
2022-10-09T08:01:50.661Z,81
2022-10-09T08:03:50.957Z,81
2022-10-09T08:05:50.677Z,81
2022-10-09T08:09:50.495Z,80
2022-10-09T08:11:50.739Z,79
2022-10-09T08:13:50.690Z,79
2022-10-09T08:15:51.493Z,80
2022-10-09T08:17:50.716Z,80
2022-10-09T08:19:54.514Z,78
2022-10-09T08:21:50.710Z,79
2022-10-09T08:23:50.946Z,80
2022-10-09T08:25:50.734Z,79
2022-10-09T08:27:50.698Z,79
2022-10-09T08:29:53.897Z,78
2022-10-09T08:31:50.986Z,77
2022-10-09T08:35:35.683Z,75
2022-10-09T08:41:31.156Z,74
2022-10-09T08:43:38.459Z,75
2022-10-09T08:45:40.359Z,78
2022-10-09T08:47:37.674Z,78
2022-10-09T08:49:39.948Z,76
2022-10-09T08:51:34.854Z,75
2022-10-09T08:53:35.994Z,74
2022-10-09T08:55:34.203Z,73
2022-10-09T08:57:40.958Z,75
2022-10-09T08:59:36.119Z,74
2022-10-09T09:01:33.832Z,74
2022-10-09T09:03:34.140Z,75
2022-10-09T09:05:38.276Z,77
2022-10-09T09:07:37.953Z,74
2022-10-09T09:09:40.026Z,74
2022-10-09T09:11:39.724Z,74
2022-10-09T09:13:36.171Z,74
2022-10-09T09:15:39.997Z,74
2022-10-09T09:17:40.899Z,74
2022-10-09T09:19:34.205Z,75
2022-10-09T09:21:37.464Z,74
2022-10-09T09:23:39.609Z,74
2022-10-09T09:25:39.572Z,75
2022-10-09T09:27:35.879Z,75
2022-10-09T09:29:37.475Z,75
2022-10-09T09:31:34.424Z,75
2022-10-09T09:33:42.333Z,75
2022-10-09T09:35:38.728Z,75
2022-10-09T09:37:39.667Z,75
2022-10-09T09:40:31.186Z,75
2022-10-09T09:41:37.265Z,76
2022-10-09T09:43:34.476Z,75
2022-10-09T09:45:35.033Z,75
2022-10-09T09:47:39.756Z,76
2022-10-09T09:49:40.765Z,76
2022-10-09T09:51:39.388Z,75
2022-10-09T09:53:38.853Z,78
2022-10-09T09:55:38.859Z,77
2022-10-09T09:57:41.801Z,77
2022-10-09T09:59:32.293Z,77
2022-10-09T10:01:34.837Z,77
2022-10-09T10:03:36.431Z,77
2022-10-09T10:05:37.170Z,77
2022-10-09T10:07:36.386Z,77
2022-10-09T10:09:34.161Z,77
2022-10-09T10:11:40.818Z,76
2022-10-09T10:13:40.007Z,77
2022-10-09T10:15:39.392Z,78
2022-10-09T10:17:39.668Z,77
2022-10-09T10:19:34.450Z,78
2022-10-09T10:21:42.096Z,79
2022-10-09T10:23:31.999Z,79
2022-10-09T10:25:37.319Z,78
2022-10-09T10:27:41.356Z,77
2022-10-09T10:29:31.714Z,77
2022-10-09T10:31:39.976Z,77
2022-10-09T10:33:37.567Z,76
2022-10-09T10:35:41.272Z,77
2022-10-09T10:37:37.033Z,79
2022-10-09T10:39:40.509Z,79
2022-10-09T10:41:39.395Z,79
2022-10-09T10:43:36.076Z,79
2022-10-09T10:45:39.169Z,79
2022-10-09T10:47:35.291Z,77
2022-10-09T10:49:38.656Z,78
2022-10-09T10:51:38.146Z,79
2022-10-09T10:53:36.745Z,78
2022-10-09T10:55:41.709Z,78
2022-10-09T10:57:34.527Z,77
2022-10-09T11:01:40.707Z,77
2022-10-09T11:03:37.708Z,77
2022-10-09T11:05:37.333Z,77
2022-10-09T11:09:37.628Z,77
2022-10-09T11:11:34.380Z,76
2022-10-09T11:13:34.315Z,76
2022-10-09T11:15:34.055Z,76
2022-10-09T11:19:40.588Z,77
2022-10-09T11:21:33.765Z,77
2022-10-09T11:23:35.411Z,77
2022-10-09T11:25:39.319Z,76
2022-10-09T11:27:38.486Z,76
2022-10-09T11:29:41.412Z,76
2022-10-09T11:31:39.541Z,76
2022-10-09T11:33:40.614Z,75
2022-10-09T11:35:31.796Z,76
2022-10-09T11:37:38.592Z,76
2022-10-09T11:39:37.282Z,76
2022-10-09T11:41:38.065Z,76
2022-10-09T11:43:41.336Z,75
2022-10-09T11:45:37.688Z,75
2022-10-09T11:47:38.181Z,72
2022-10-09T11:49:40.646Z,74
2022-10-09T11:53:39.169Z,72
2022-10-09T11:55:36.175Z,71
2022-10-09T11:57:33.742Z,71
2022-10-09T11:59:35.890Z,71
2022-10-09T12:01:40.146Z,70
2022-10-09T12:03:32.343Z,71
2022-10-09T12:05:37.624Z,70
2022-10-09T12:09:37.414Z,71
2022-10-09T12:11:37.704Z,70
2022-10-09T12:13:40.469Z,69
2022-10-09T12:15:41.705Z,70
2022-10-09T12:17:35.022Z,69
2022-10-09T12:19:34.169Z,71
2022-10-09T12:21:37.968Z,70
2022-10-09T12:23:39.185Z,70
2022-10-09T12:25:41.782Z,71
2022-10-09T12:27:37.864Z,71
2022-10-09T12:29:38.100Z,71
2022-10-09T12:31:35.663Z,71
2022-10-09T12:33:34.716Z,70
2022-10-09T12:35:40.757Z,71
2022-10-09T12:37:34.504Z,71
2022-10-09T12:39:31.490Z,71
2022-10-09T12:41:37.665Z,71
2022-10-09T12:43:41.194Z,71
2022-10-09T12:45:35.067Z,70
2022-10-09T12:47:40.513Z,70
2022-10-09T12:49:34.958Z,70
2022-10-09T12:51:35.734Z,70
2022-10-09T12:55:35.741Z,70
2022-10-09T12:57:38.314Z,71
2022-10-09T12:59:40.452Z,70
2022-10-09T13:01:40.210Z,70
2022-10-09T13:03:33.081Z,70
2022-10-09T13:05:33.944Z,70
2022-10-09T13:09:37.887Z,70
2022-10-09T13:11:38.677Z,70
2022-10-09T13:13:40.652Z,70
2022-10-09T13:15:33.874Z,70
2022-10-09T13:17:40.200Z,70
2022-10-09T13:19:38.276Z,70
2022-10-09T13:21:39.652Z,70
2022-10-09T13:23:38.664Z,69
2022-10-09T13:25:38.187Z,70
2022-10-09T13:27:35.335Z,71
2022-10-09T13:29:36.863Z,71
2022-10-09T13:31:41.380Z,70
2022-10-09T13:33:35.663Z,71
2022-10-09T13:35:38.249Z,71
2022-10-09T13:37:34.374Z,70
2022-10-09T13:39:40.397Z,70
2022-10-09T13:41:36.719Z,70
2022-10-09T13:43:41.884Z,70
2022-10-09T13:45:35.021Z,71
2022-10-09T13:47:35.138Z,71
2022-10-09T13:49:31.478Z,71
2022-10-09T13:51:35.086Z,71
2022-10-09T13:53:41.121Z,72
2022-10-09T13:55:38.719Z,70
2022-10-09T13:57:37.801Z,70
2022-10-09T13:59:36.694Z,71
2022-10-09T14:01:35.043Z,71
2022-10-09T14:03:31.401Z,71
2022-10-09T14:05:39.403Z,71
2022-10-09T14:07:34.995Z,71
2022-10-09T14:09:33.910Z,70
2022-10-09T14:11:39.233Z,72
2022-10-09T14:13:42.005Z,71
2022-10-09T14:15:37.674Z,71
2022-10-09T14:17:34.992Z,71
2022-10-09T14:19:41.198Z,71
2022-10-09T14:21:35.286Z,71
2022-10-09T14:23:41.624Z,72
2022-10-09T14:25:36.810Z,71
2022-10-09T14:29:34.643Z,71
2022-10-09T14:31:35.281Z,71
2022-10-09T14:33:38.246Z,71
2022-10-09T14:35:38.235Z,71
2022-10-09T14:37:41.389Z,71
2022-10-09T14:39:36.698Z,71
2022-10-09T14:41:37.751Z,71
2022-10-09T14:43:37.652Z,71
2022-10-09T14:45:34.589Z,72
2022-10-09T14:47:35.003Z,72
2022-10-09T14:49:34.997Z,72
2022-10-09T14:51:38.114Z,72
2022-10-09T14:53:38.341Z,72
2022-10-09T14:55:34.953Z,72
2022-10-09T14:57:35.127Z,72
2022-10-09T14:59:40.553Z,72
2022-10-09T15:01:34.813Z,72
2022-10-09T15:03:38.094Z,72
2022-10-09T15:05:35.189Z,72
2022-10-09T15:07:35.313Z,73
2022-10-09T15:09:38.226Z,72
2022-10-09T15:11:34.508Z,72
2022-10-09T15:13:38.148Z,72
2022-10-09T15:15:38.288Z,73
2022-10-09T15:17:35.167Z,72
2022-10-09T15:19:37.533Z,73
2022-10-09T15:21:40.936Z,73
2022-10-09T15:23:35.012Z,74
2022-10-09T15:25:35.052Z,74
2022-10-09T15:27:36.322Z,75
2022-10-09T15:29:35.016Z,75
2022-10-09T15:31:35.106Z,75
2022-10-09T15:33:34.160Z,75
2022-10-09T15:35:35.196Z,76
2022-10-09T15:37:35.139Z,75
2022-10-09T15:39:35.262Z,75
2022-10-09T15:41:35.058Z,75
2022-10-09T15:43:36.420Z,75
2022-10-09T15:45:34.952Z,75
2022-10-09T15:47:50.274Z,76
2022-10-09T15:49:38.326Z,76
2022-10-09T15:51:39.841Z,76
2022-10-09T15:53:37.821Z,77
2022-10-09T15:55:34.994Z,76
2022-10-09T15:57:35.096Z,77
2022-10-09T16:01:35.111Z,77
2022-10-09T16:03:37.085Z,77
2022-10-09T16:05:36.288Z,78
2022-10-09T16:07:38.446Z,78
2022-10-09T16:09:34.702Z,79
2022-10-09T16:11:35.046Z,78
2022-10-09T16:13:35.312Z,78
2022-10-09T16:15:35.052Z,78
2022-10-09T16:17:38.955Z,79
2022-10-09T16:19:34.666Z,78
2022-10-09T16:21:34.975Z,79
2022-10-09T16:23:37.889Z,79
2022-10-09T16:25:38.083Z,78
2022-10-09T16:27:37.883Z,79
2022-10-09T16:29:36.284Z,79
2022-10-09T16:31:35.092Z,79
2022-10-09T16:33:34.591Z,78
2022-10-09T16:35:33.916Z,78
2022-10-09T16:37:35.251Z,78
2022-10-09T16:39:35.088Z,77
2022-10-09T16:43:34.614Z,77
2022-10-09T16:45:34.499Z,77
2022-10-09T16:47:40.573Z,77
2022-10-09T16:49:35.042Z,77
2022-10-09T16:53:36.416Z,77
2022-10-09T16:55:34.829Z,77
2022-10-09T16:57:35.174Z,77
2022-10-09T16:59:35.185Z,77
2022-10-09T17:01:34.567Z,77
2022-10-09T17:03:35.619Z,77
2022-10-09T17:05:35.048Z,76
2022-10-09T17:07:35.025Z,76
2022-10-09T17:09:34.807Z,76
2022-10-09T17:11:35.126Z,77
2022-10-09T17:13:34.999Z,76
2022-10-09T17:15:34.227Z,76
2022-10-09T17:17:35.284Z,76
2022-10-09T17:19:42.204Z,76
2022-10-09T17:21:42.191Z,76
2022-10-09T17:23:34.993Z,76
2022-10-09T17:25:38.053Z,76
2022-10-09T17:27:37.762Z,76
2022-10-09T17:29:34.696Z,76
2022-10-09T17:31:35.126Z,76
2022-10-09T17:33:34.162Z,76
2022-10-09T17:35:35.125Z,76
2022-10-09T17:37:33.103Z,76
2022-10-09T17:39:35.216Z,76
2022-10-09T17:41:32.758Z,76
2022-10-09T17:43:34.751Z,77
2022-10-09T17:45:39.034Z,76
2022-10-09T17:47:32.682Z,76
2022-10-09T17:49:38.081Z,76
2022-10-09T17:53:35.353Z,76
2022-10-09T17:55:31.241Z,76
2022-10-09T17:57:34.668Z,77
2022-10-09T17:59:41.054Z,77
2022-10-09T18:01:34.916Z,77
2022-10-09T18:03:34.907Z,78
2022-10-09T18:05:41.366Z,78
2022-10-09T18:07:38.576Z,78
2022-10-09T18:09:34.707Z,79
2022-10-09T18:11:41.443Z,79
2022-10-09T18:13:38.385Z,79
2022-10-09T18:15:36.963Z,80
2022-10-09T18:17:35.220Z,80
2022-10-09T18:19:34.891Z,80
2022-10-09T18:21:40.866Z,80
2022-10-09T18:23:38.527Z,81
2022-10-09T18:25:38.360Z,81
2022-10-09T18:27:35.063Z,81
2022-10-09T18:29:38.143Z,81
2022-10-09T18:31:34.992Z,81
2022-10-09T18:33:35.513Z,81
2022-10-09T18:35:34.869Z,81
2022-10-09T18:37:35.102Z,81
2022-10-09T18:39:35.154Z,81
2022-10-09T18:41:36.705Z,81
2022-10-09T18:43:38.361Z,81
2022-10-09T18:45:36.586Z,81
2022-10-09T18:47:35.093Z,81
2022-10-09T18:49:31.363Z,81
2022-10-09T18:51:39.521Z,81
2022-10-09T18:53:34.613Z,81
2022-10-09T18:55:39.205Z,81
2022-10-09T18:57:34.852Z,81
2022-10-09T18:59:38.138Z,81
2022-10-09T19:01:34.661Z,81
2022-10-09T19:03:35.175Z,81
2022-10-09T19:05:34.721Z,81
2022-10-09T19:07:34.971Z,81
2022-10-09T19:09:35.192Z,80
2022-10-09T19:11:36.337Z,80
2022-10-09T19:13:35.156Z,81
2022-10-09T19:15:35.109Z,81
2022-10-09T19:17:35.156Z,81
2022-10-09T19:19:34.578Z,81
2022-10-09T19:21:35.123Z,81
2022-10-09T19:23:40.734Z,81
2022-10-09T19:27:37.848Z,81
2022-10-09T19:29:39.863Z,81
2022-10-09T19:31:35.110Z,81
2022-10-09T19:33:35.001Z,81
2022-10-09T19:35:34.689Z,81
2022-10-09T19:37:37.851Z,81
2022-10-09T19:39:35.118Z,81
2022-10-09T19:41:35.009Z,81
2022-10-09T19:45:34.696Z,81
2022-10-09T19:47:33.464Z,81
2022-10-09T19:49:36.092Z,81
2022-10-09T19:51:35.341Z,81
2022-10-09T19:53:34.738Z,81
2022-10-09T19:55:34.587Z,81
2022-10-09T19:57:41.392Z,81
2022-10-09T19:59:37.552Z,81
2022-10-09T20:01:34.397Z,81
2022-10-09T20:03:35.378Z,81
2022-10-09T20:05:38.178Z,81
2022-10-09T20:07:34.918Z,81
2022-10-09T20:09:35.127Z,81
2022-10-09T20:11:41.215Z,81
2022-10-09T20:13:34.935Z,82
2022-10-09T20:15:34.183Z,82
2022-10-09T20:17:38.216Z,82
2022-10-09T20:19:35.143Z,82
2022-10-09T20:21:38.343Z,82
2022-10-09T20:23:35.134Z,82
2022-10-09T20:25:40.842Z,82
2022-10-09T20:27:33.914Z,82
2022-10-09T20:29:35.041Z,82
2022-10-09T20:31:31.410Z,82
2022-10-09T20:33:38.516Z,82
2022-10-09T20:35:35.012Z,82
2022-10-09T20:37:37.916Z,82
2022-10-09T20:39:34.712Z,82
2022-10-09T20:41:38.101Z,82
2022-10-09T20:43:34.622Z,82
2022-10-09T20:45:41.517Z,82
2022-10-09T20:47:38.185Z,82
2022-10-09T20:49:41.781Z,83
2022-10-09T20:51:37.280Z,82
2022-10-09T20:53:39.184Z,83
2022-10-09T20:55:33.027Z,82
2022-10-09T20:57:35.047Z,82
2022-10-09T20:59:34.407Z,83
2022-10-09T21:01:35.063Z,83
2022-10-09T21:05:38.142Z,82
2022-10-09T21:07:41.396Z,82
2022-10-09T21:09:40.952Z,82
2022-10-09T21:11:33.892Z,82
2022-10-09T21:13:34.546Z,82
2022-10-09T21:15:34.698Z,82
2022-10-09T21:17:34.755Z,82
2022-10-09T21:19:43.116Z,82
2022-10-09T21:21:38.272Z,82
2022-10-09T21:25:34.975Z,82
2022-10-09T21:27:34.903Z,82
2022-10-09T21:29:34.804Z,82
2022-10-09T21:33:34.238Z,82
2022-10-09T21:35:34.739Z,82
2022-10-09T21:37:37.753Z,82
2022-10-09T21:39:34.571Z,83
2022-10-09T21:41:34.971Z,82
2022-10-09T21:43:40.753Z,82
2022-10-09T21:45:33.856Z,82
2022-10-09T21:47:34.486Z,82
2022-10-09T21:51:42.369Z,82
2022-10-09T21:53:34.883Z,83
2022-10-09T21:55:34.632Z,83
2022-10-09T21:57:38.220Z,83
2022-10-09T21:59:34.124Z,83
2022-10-09T22:01:31.980Z,83
2022-10-09T22:05:35.603Z,83
2022-10-09T22:07:31.418Z,83
2022-10-09T22:09:34.566Z,83
2022-10-09T22:11:36.826Z,83
2022-10-09T22:13:33.001Z,83
2022-10-09T22:15:37.618Z,83
2022-10-09T22:17:34.558Z,83
2022-10-09T22:19:31.403Z,83
2022-10-09T22:21:34.625Z,83
2022-10-09T22:23:34.562Z,83
2022-10-09T22:25:38.369Z,83
2022-10-09T22:27:37.481Z,83
2022-10-09T22:29:34.590Z,84
2022-10-09T22:31:31.413Z,83
2022-10-09T22:35:33.291Z,83
2022-10-09T22:37:37.846Z,83
2022-10-09T22:39:34.507Z,83
2022-10-09T22:41:40.634Z,83
2022-10-09T22:43:42.347Z,83
2022-10-09T22:45:40.627Z,83
2022-10-09T22:47:34.627Z,83
2022-10-09T22:49:34.661Z,83
2022-10-09T22:51:38.197Z,84
2022-10-09T22:53:35.140Z,84
2022-10-09T22:55:42.100Z,83
2022-10-09T22:59:42.202Z,83
2022-10-09T23:01:35.206Z,83
2022-10-09T23:05:34.843Z,83
2022-10-09T23:07:40.575Z,83
2022-10-09T23:09:33.133Z,83
2022-10-09T23:11:34.925Z,83
2022-10-09T23:13:38.744Z,83
2022-10-09T23:15:31.345Z,83
2022-10-09T23:17:34.877Z,83
2022-10-09T23:19:35.335Z,83
2022-10-09T23:21:38.990Z,83
2022-10-09T23:25:34.641Z,83
2022-10-09T23:27:33.905Z,83
2022-10-09T23:29:39.066Z,83
2022-10-09T23:31:34.652Z,84
2022-10-09T23:33:35.994Z,84
2022-10-09T23:35:34.595Z,84
2022-10-09T23:37:34.648Z,83
2022-10-09T23:39:34.734Z,83
2022-10-09T23:41:42.087Z,83
2022-10-09T23:43:34.787Z,83
2022-10-09T23:45:38.337Z,83
2022-10-09T23:47:34.379Z,83
2022-10-09T23:51:34.159Z,83
2022-10-09T23:55:37.695Z,83
2022-10-09T23:57:34.642Z,83
2022-10-09T23:59:34.259Z,83
